sensor_id;sensor_type;location;lat;lon;timestamp;P1;durP1;ratioP1;P2;durP2;ratioP2
44048;SDS011;29717;47.028;15.470;2023-11-22T00:01:51;22.03;;;15.83;;
44048;SDS011;29717;47.028;15.470;2023-11-22T00:04:18;16.97;;;15.27;;
44048;SDS011;29717;47.028;15.470;2023-11-22T00:06:45;16.73;;;14.83;;
44048;SDS011;29717;47.028;15.470;2023-11-22T00:09:12;29.10;;;17.37;;
44048;SDS011;29717;47.028;15.470;2023-11-22T00:11:39;25.90;;;16.73;;
44048;SDS011;29717;47.028;15.470;2023-11-22T00:14:07;16.43;;;14.77;;
44048;SDS011;29717;47.028;15.470;2023-11-22T00:16:34;21.13;;;15.83;;
44048;SDS011;29717;47.028;15.470;2023-11-22T00:19:02;16.10;;;14.60;;
44048;SDS011;29717;47.028;15.470;2023-11-22T00:21:30;17.20;;;15.53;;
44048;SDS011;29717;47.028;15.470;2023-11-22T00:23:57;15.53;;;14.03;;
44048;SDS011;29717;47.028;15.470;2023-11-22T00:26:23;16.17;;;14.57;;
44048;SDS011;29717;47.028;15.470;2023-11-22T00:28:50;15.73;;;14.30;;
44048;SDS011;29717;47.028;15.470;2023-11-22T00:31:19;16.83;;;15.07;;
44048;SDS011;29717;47.028;15.470;2023-11-22T00:33:46;16.67;;;14.90;;
44048;SDS011;29717;47.028;15.470;2023-11-22T00:36:12;21.07;;;15.47;;
44048;SDS011;29717;47.028;15.470;2023-11-22T00:38:39;33.43;;;16.20;;
44048;SDS011;29717;47.028;15.470;2023-11-22T00:41:06;17.03;;;15.30;;
44048;SDS011;29717;47.028;15.470;2023-11-22T00:43:33;18.73;;;14.37;;
44048;SDS011;29717;47.028;15.470;2023-11-22T00:45:59;23.10;;;14.67;;
44048;SDS011;29717;47.028;15.470;2023-11-22T00:48:28;18.63;;;15.80;;
44048;SDS011;29717;47.028;15.470;2023-11-22T00:50:54;34.33;;;16.33;;
44048;SDS011;29717;47.028;15.470;2023-11-22T00:53:21;44.33;;;16.80;;
44048;SDS011;29717;47.028;15.470;2023-11-22T00:55:48;17.23;;;15.50;;
44048;SDS011;29717;47.028;15.470;2023-11-22T00:58:15;42.67;;;19.30;;
44048;SDS011;29717;47.028;15.470;2023-11-22T01:00:42;17.97;;;16.03;;
44048;SDS011;29717;47.028;15.470;2023-11-22T01:03:10;24.60;;;16.43;;
44048;SDS011;29717;47.028;15.470;2023-11-22T01:05:38;21.13;;;17.00;;
44048;SDS011;29717;47.028;15.470;2023-11-22T01:08:05;21.53;;;16.97;;
44048;SDS011;29717;47.028;15.470;2023-11-22T01:10:32;20.17;;;16.83;;
44048;SDS011;29717;47.028;15.470;2023-11-22T01:12:58;18.17;;;16.33;;
44048;SDS011;29717;47.028;15.470;2023-11-22T01:15:25;17.57;;;15.87;;
44048;SDS011;29717;47.028;15.470;2023-11-22T01:17:52;17.67;;;15.97;;
44048;SDS011;29717;47.028;15.470;2023-11-22T01:20:18;18.10;;;16.30;;
44048;SDS011;29717;47.028;15.470;2023-11-22T01:22:49;18.10;;;16.20;;
44048;SDS011;29717;47.028;15.470;2023-11-22T01:25:16;17.90;;;16.10;;
44048;SDS011;29717;47.028;15.470;2023-11-22T01:27:42;18.03;;;16.10;;
44048;SDS011;29717;47.028;15.470;2023-11-22T01:30:09;17.73;;;15.93;;
44048;SDS011;29717;47.028;15.470;2023-11-22T01:32:37;17.17;;;15.47;;
44048;SDS011;29717;47.028;15.470;2023-11-22T01:35:04;17.53;;;15.73;;
44048;SDS011;29717;47.028;15.470;2023-11-22T01:37:32;22.53;;;15.33;;
44048;SDS011;29717;47.028;15.470;2023-11-22T01:40:00;17.73;;;15.77;;
44048;SDS011;29717;47.028;15.470;2023-11-22T01:42:28;22.23;;;15.33;;
44048;SDS011;29717;47.028;15.470;2023-11-22T01:44:55;31.47;;;15.13;;
44048;SDS011;29717;47.028;15.470;2023-11-22T01:47:21;30.03;;;15.57;;
44048;SDS011;29717;47.028;15.470;2023-11-22T01:49:48;42.87;;;15.97;;
44048;SDS011;29717;47.028;15.470;2023-11-22T01:52:15;44.63;;;16.27;;
44048;SDS011;29717;47.028;15.470;2023-11-22T01:54:42;44.30;;;16.47;;
44048;SDS011;29717;47.028;15.470;2023-11-22T01:57:11;26.90;;;15.43;;
44048;SDS011;29717;47.028;15.470;2023-11-22T01:59:37;23.93;;;15.13;;
44048;SDS011;29717;47.028;15.470;2023-11-22T02:02:04;35.43;;;17.40;;
44048;SDS011;29717;47.028;15.470;2023-11-22T02:04:31;24.17;;;15.33;;
44048;SDS011;29717;47.028;15.470;2023-11-22T02:06:58;17.97;;;14.83;;
44048;SDS011;29717;47.028;15.470;2023-11-22T02:09:25;23.63;;;16.10;;
44048;SDS011;29717;47.028;15.470;2023-11-22T02:11:52;21.10;;;15.60;;
44048;SDS011;29717;47.028;15.470;2023-11-22T02:14:20;21.47;;;15.27;;
44048;SDS011;29717;47.028;15.470;2023-11-22T02:16:47;21.23;;;16.07;;
44048;SDS011;29717;47.028;15.470;2023-11-22T02:19:14;21.97;;;15.30;;
44048;SDS011;29717;47.028;15.470;2023-11-22T02:21:41;19.27;;;14.10;;
44048;SDS011;29717;47.028;15.470;2023-11-22T02:24:10;27.00;;;16.23;;
44048;SDS011;29717;47.028;15.470;2023-11-22T02:26:37;29.23;;;15.13;;
44048;SDS011;29717;47.028;15.470;2023-11-22T02:29:04;15.47;;;13.80;;
44048;SDS011;29717;47.028;15.470;2023-11-22T02:31:31;28.53;;;16.77;;
44048;SDS011;29717;47.028;15.470;2023-11-22T02:33:59;18.37;;;14.50;;
44048;SDS011;29717;47.028;15.470;2023-11-22T02:36:26;16.50;;;14.67;;
44048;SDS011;29717;47.028;15.470;2023-11-22T02:38:52;19.73;;;14.73;;
44048;SDS011;29717;47.028;15.470;2023-11-22T02:41:20;17.50;;;14.73;;
44048;SDS011;29717;47.028;15.470;2023-11-22T02:43:47;17.40;;;15.10;;
44048;SDS011;29717;47.028;15.470;2023-11-22T02:46:13;21.70;;;14.87;;
44048;SDS011;29717;47.028;15.470;2023-11-22T02:48:39;33.30;;;18.90;;
44048;SDS011;29717;47.028;15.470;2023-11-22T02:51:06;32.47;;;18.57;;
44048;SDS011;29717;47.028;15.470;2023-11-22T02:53:33;31.17;;;19.33;;
44048;SDS011;29717;47.028;15.470;2023-11-22T02:56:00;18.30;;;15.77;;
44048;SDS011;29717;47.028;15.470;2023-11-22T02:58:28;25.40;;;15.83;;
44048;SDS011;29717;47.028;15.470;2023-11-22T03:00:56;23.93;;;16.87;;
44048;SDS011;29717;47.028;15.470;2023-11-22T03:03:22;16.47;;;14.87;;
44048;SDS011;29717;47.028;15.470;2023-11-22T03:05:50;82.57;;;19.43;;
44048;SDS011;29717;47.028;15.470;2023-11-22T03:08:17;21.57;;;15.83;;
44048;SDS011;29717;47.028;15.470;2023-11-22T03:10:43;28.53;;;16.33;;
44048;SDS011;29717;47.028;15.470;2023-11-22T03:13:10;79.43;;;20.90;;
44048;SDS011;29717;47.028;15.470;2023-11-22T03:15:38;17.97;;;15.23;;
44048;SDS011;29717;47.028;15.470;2023-11-22T03:18:05;63.27;;;18.83;;
44048;SDS011;29717;47.028;15.470;2023-11-22T03:20:31;101.30;;;21.33;;
44048;SDS011;29717;47.028;15.470;2023-11-22T03:22:58;42.43;;;17.53;;
44048;SDS011;29717;47.028;15.470;2023-11-22T03:25:25;69.30;;;20.63;;
44048;SDS011;29717;47.028;15.470;2023-11-22T03:27:52;32.33;;;16.93;;
44048;SDS011;29717;47.028;15.470;2023-11-22T03:30:19;46.30;;;18.90;;
44048;SDS011;29717;47.028;15.470;2023-11-22T03:32:47;54.23;;;19.40;;
44048;SDS011;29717;47.028;15.470;2023-11-22T03:35:15;25.37;;;15.23;;
44048;SDS011;29717;47.028;15.470;2023-11-22T03:37:42;47.93;;;18.90;;
44048;SDS011;29717;47.028;15.470;2023-11-22T03:40:09;15.50;;;13.97;;
44048;SDS011;29717;47.028;15.470;2023-11-22T03:42:36;16.37;;;14.53;;
44048;SDS011;29717;47.028;15.470;2023-11-22T03:45:04;26.00;;;16.83;;
44048;SDS011;29717;47.028;15.470;2023-11-22T03:47:31;20.40;;;15.40;;
44048;SDS011;29717;47.028;15.470;2023-11-22T03:50:00;15.93;;;14.43;;
44048;SDS011;29717;47.028;15.470;2023-11-22T03:52:27;25.33;;;17.73;;
44048;SDS011;29717;47.028;15.470;2023-11-22T03:54:53;27.37;;;17.97;;
44048;SDS011;29717;47.028;15.470;2023-11-22T03:57:20;27.17;;;19.00;;
44048;SDS011;29717;47.028;15.470;2023-11-22T03:59:47;16.50;;;14.90;;
44048;SDS011;29717;47.028;15.470;2023-11-22T04:02:13;16.17;;;14.57;;
44048;SDS011;29717;47.028;15.470;2023-11-22T04:04:40;15.43;;;14.00;;
44048;SDS011;29717;47.028;15.470;2023-11-22T04:07:08;17.53;;;14.67;;
44048;SDS011;29717;47.028;15.470;2023-11-22T04:09:35;16.07;;;14.57;;
44048;SDS011;29717;47.028;15.470;2023-11-22T04:12:02;15.03;;;13.53;;
44048;SDS011;29717;47.028;15.470;2023-11-22T04:14:30;15.50;;;14.10;;
44048;SDS011;29717;47.028;15.470;2023-11-22T04:16:57;15.00;;;13.60;;
44048;SDS011;29717;47.028;15.470;2023-11-22T04:19:24;14.23;;;12.93;;
44048;SDS011;29717;47.028;15.470;2023-11-22T04:21:50;14.93;;;13.57;;
44048;SDS011;29717;47.028;15.470;2023-11-22T04:24:18;14.13;;;12.80;;
44048;SDS011;29717;47.028;15.470;2023-11-22T04:26:45;14.20;;;12.93;;
44048;SDS011;29717;47.028;15.470;2023-11-22T04:29:12;13.47;;;12.17;;
44048;SDS011;29717;47.028;15.470;2023-11-22T04:31:38;13.60;;;12.37;;
44048;SDS011;29717;47.028;15.470;2023-11-22T04:34:05;13.33;;;12.03;;
44048;SDS011;29717;47.028;15.470;2023-11-22T04:36:32;13.73;;;12.33;;
44048;SDS011;29717;47.028;15.470;2023-11-22T04:38:58;15.17;;;13.87;;
44048;SDS011;29717;47.028;15.470;2023-11-22T04:41:26;14.67;;;13.33;;
44048;SDS011;29717;47.028;15.470;2023-11-22T04:43:53;14.53;;;13.13;;
44048;SDS011;29717;47.028;15.470;2023-11-22T04:46:20;14.60;;;13.13;;
44048;SDS011;29717;47.028;15.470;2023-11-22T04:48:47;14.80;;;13.30;;
44048;SDS011;29717;47.028;15.470;2023-11-22T04:51:16;14.60;;;13.30;;
44048;SDS011;29717;47.028;15.470;2023-11-22T04:53:44;15.37;;;13.97;;
44048;SDS011;29717;47.028;15.470;2023-11-22T04:56:10;17.37;;;15.73;;
44048;SDS011;29717;47.028;15.470;2023-11-22T04:58:38;17.90;;;16.10;;
44048;SDS011;29717;47.028;15.470;2023-11-22T05:01:05;16.33;;;14.53;;
44048;SDS011;29717;47.028;15.470;2023-11-22T05:03:33;16.33;;;14.63;;
44048;SDS011;29717;47.028;15.470;2023-11-22T05:06:00;16.47;;;14.80;;
44048;SDS011;29717;47.028;15.470;2023-11-22T05:08:27;17.10;;;15.43;;
44048;SDS011;29717;47.028;15.470;2023-11-22T05:10:53;15.77;;;14.27;;
44048;SDS011;29717;47.028;15.470;2023-11-22T05:13:20;15.77;;;14.27;;
44048;SDS011;29717;47.028;15.470;2023-11-22T05:15:48;19.97;;;17.73;;
44048;SDS011;29717;47.028;15.470;2023-11-22T05:18:15;16.87;;;15.07;;
44048;SDS011;29717;47.028;15.470;2023-11-22T05:20:42;16.33;;;14.73;;
44048;SDS011;29717;47.028;15.470;2023-11-22T05:23:09;19.47;;;14.63;;
44048;SDS011;29717;47.028;15.470;2023-11-22T05:25:35;16.50;;;14.87;;
44048;SDS011;29717;47.028;15.470;2023-11-22T05:28:02;16.47;;;14.87;;
44048;SDS011;29717;47.028;15.470;2023-11-22T05:30:29;18.10;;;16.30;;
44048;SDS011;29717;47.028;15.470;2023-11-22T05:32:57;18.70;;;16.80;;
44048;SDS011;29717;47.028;15.470;2023-11-22T05:35:25;16.27;;;14.50;;
44048;SDS011;29717;47.028;15.470;2023-11-22T05:37:51;16.10;;;14.60;;
44048;SDS011;29717;47.028;15.470;2023-11-22T05:40:18;18.87;;;15.83;;
44048;SDS011;29717;47.028;15.470;2023-11-22T05:42:44;16.83;;;15.13;;
44048;SDS011;29717;47.028;15.470;2023-11-22T05:45:11;18.57;;;16.60;;
44048;SDS011;29717;47.028;15.470;2023-11-22T05:47:38;15.70;;;14.23;;
44048;SDS011;29717;47.028;15.470;2023-11-22T05:50:07;20.93;;;16.03;;
44048;SDS011;29717;47.028;15.470;2023-11-22T05:52:34;18.47;;;16.57;;
44048;SDS011;29717;47.028;15.470;2023-11-22T05:55:01;18.10;;;15.87;;
44048;SDS011;29717;47.028;15.470;2023-11-22T05:57:29;18.03;;;16.13;;
44048;SDS011;29717;47.028;15.470;2023-11-22T05:59:56;20.20;;;17.07;;
44048;SDS011;29717;47.028;15.470;2023-11-22T06:02:22;18.93;;;16.93;;
44048;SDS011;29717;47.028;15.470;2023-11-22T06:04:49;17.53;;;15.63;;
44048;SDS011;29717;47.028;15.470;2023-11-22T06:07:17;19.20;;;14.87;;
44048;SDS011;29717;47.028;15.470;2023-11-22T06:09:44;15.80;;;14.20;;
44048;SDS011;29717;47.028;15.470;2023-11-22T06:12:10;16.43;;;14.20;;
44048;SDS011;29717;47.028;15.470;2023-11-22T06:14:37;19.53;;;14.70;;
44048;SDS011;29717;47.028;15.470;2023-11-22T06:17:04;16.70;;;14.87;;
44048;SDS011;29717;47.028;15.470;2023-11-22T06:19:30;16.33;;;13.40;;
44048;SDS011;29717;47.028;15.470;2023-11-22T06:21:57;20.97;;;13.83;;
44048;SDS011;29717;47.028;15.470;2023-11-22T06:24:25;16.10;;;13.27;;
44048;SDS011;29717;47.028;15.470;2023-11-22T06:26:52;15.13;;;13.57;;
44048;SDS011;29717;47.028;15.470;2023-11-22T06:29:18;19.87;;;13.53;;
44048;SDS011;29717;47.028;15.470;2023-11-22T06:31:45;14.47;;;12.40;;
44048;SDS011;29717;47.028;15.470;2023-11-22T06:34:12;15.37;;;13.30;;
44048;SDS011;29717;47.028;15.470;2023-11-22T06:36:38;12.50;;;11.20;;
44048;SDS011;29717;47.028;15.470;2023-11-22T06:39:05;16.57;;;11.87;;
44048;SDS011;29717;47.028;15.470;2023-11-22T06:41:35;11.63;;;10.40;;
44048;SDS011;29717;47.028;15.470;2023-11-22T06:44:02;12.20;;;10.50;;
44048;SDS011;29717;47.028;15.470;2023-11-22T06:46:29;22.13;;;12.20;;
44048;SDS011;29717;47.028;15.470;2023-11-22T06:48:55;16.17;;;11.23;;
44048;SDS011;29717;47.028;15.470;2023-11-22T06:51:22;18.90;;;13.20;;
44048;SDS011;29717;47.028;15.470;2023-11-22T06:53:49;16.50;;;13.00;;
44048;SDS011;29717;47.028;15.470;2023-11-22T06:56:17;17.80;;;12.60;;
44048;SDS011;29717;47.028;15.470;2023-11-22T06:58:45;13.17;;;10.73;;
44048;SDS011;29717;47.028;15.470;2023-11-22T07:01:11;15.37;;;10.20;;
44048;SDS011;29717;47.028;15.470;2023-11-22T07:03:39;14.90;;;10.17;;
44048;SDS011;29717;47.028;15.470;2023-11-22T07:06:05;13.20;;;10.20;;
44048;SDS011;29717;47.028;15.470;2023-11-22T07:08:33;16.57;;;11.07;;
44048;SDS011;29717;47.028;15.470;2023-11-22T07:11:00;17.27;;;10.60;;
44048;SDS011;29717;47.028;15.470;2023-11-22T07:13:28;11.40;;;10.00;;
44048;SDS011;29717;47.028;15.470;2023-11-22T07:15:56;13.27;;;9.90;;
44048;SDS011;29717;47.028;15.470;2023-11-22T07:18:23;14.93;;;10.83;;
44048;SDS011;29717;47.028;15.470;2023-11-22T07:20:50;16.03;;;10.37;;
44048;SDS011;29717;47.028;15.470;2023-11-22T07:23:18;13.63;;;11.03;;
44048;SDS011;29717;47.028;15.470;2023-11-22T07:25:46;20.07;;;11.40;;
44048;SDS011;29717;47.028;15.470;2023-11-22T07:28:13;14.27;;;11.13;;
44048;SDS011;29717;47.028;15.470;2023-11-22T07:30:40;15.57;;;11.13;;
44048;SDS011;29717;47.028;15.470;2023-11-22T07:33:09;15.00;;;11.50;;
44048;SDS011;29717;47.028;15.470;2023-11-22T07:35:37;11.87;;;10.63;;
44048;SDS011;29717;47.028;15.470;2023-11-22T07:38:04;15.97;;;10.87;;
44048;SDS011;29717;47.028;15.470;2023-11-22T07:40:33;22.17;;;13.03;;
44048;SDS011;29717;47.028;15.470;2023-11-22T07:43:00;19.03;;;12.27;;
44048;SDS011;29717;47.028;15.470;2023-11-22T07:45:30;17.03;;;12.93;;
44048;SDS011;29717;47.028;15.470;2023-11-22T07:47:57;19.53;;;12.30;;
44048;SDS011;29717;47.028;15.470;2023-11-22T07:50:26;18.10;;;11.03;;
44048;SDS011;29717;47.028;15.470;2023-11-22T07:52:52;14.03;;;11.17;;
44048;SDS011;29717;47.028;15.470;2023-11-22T07:55:19;14.33;;;11.43;;
44048;SDS011;29717;47.028;15.470;2023-11-22T07:57:47;12.67;;;10.37;;
44048;SDS011;29717;47.028;15.470;2023-11-22T08:00:14;17.03;;;10.93;;
44048;SDS011;29717;47.028;15.470;2023-11-22T08:02:44;17.63;;;11.80;;
44048;SDS011;29717;47.028;15.470;2023-11-22T08:05:11;16.87;;;11.57;;
44048;SDS011;29717;47.028;15.470;2023-11-22T08:07:41;16.13;;;11.40;;
44048;SDS011;29717;47.028;15.470;2023-11-22T08:10:11;14.60;;;10.33;;
44048;SDS011;29717;47.028;15.470;2023-11-22T08:12:44;13.10;;;10.25;;
44048;SDS011;29717;47.028;15.470;2023-11-22T08:15:11;13.25;;;9.40;;
44048;SDS011;29717;47.028;15.470;2023-11-22T08:17:38;11.90;;;8.93;;
44048;SDS011;29717;47.028;15.470;2023-11-22T08:20:05;11.75;;;9.68;;
44048;SDS011;29717;47.028;15.470;2023-11-22T08:22:37;13.75;;;9.68;;
44048;SDS011;29717;47.028;15.470;2023-11-22T08:25:06;10.70;;;9.50;;
44048;SDS011;29717;47.028;15.470;2023-11-22T08:27:33;13.98;;;10.32;;
44048;SDS011;29717;47.028;15.470;2023-11-22T08:30:00;15.43;;;11.13;;
44048;SDS011;29717;47.028;15.470;2023-11-22T08:32:30;19.73;;;11.88;;
44048;SDS011;29717;47.028;15.470;2023-11-22T08:34:56;16.52;;;13.15;;
44048;SDS011;29717;47.028;15.470;2023-11-22T08:37:23;11.65;;;10.25;;
44048;SDS011;29717;47.028;15.470;2023-11-22T08:39:50;11.85;;;9.82;;
44048;SDS011;29717;47.028;15.470;2023-11-22T08:42:18;12.50;;;9.73;;
44048;SDS011;29717;47.028;15.470;2023-11-22T08:44:44;15.75;;;9.35;;
44048;SDS011;29717;47.028;15.470;2023-11-22T08:47:11;14.57;;;8.95;;
44048;SDS011;29717;47.028;15.470;2023-11-22T08:49:38;14.25;;;9.48;;
44048;SDS011;29717;47.028;15.470;2023-11-22T08:52:05;14.73;;;9.05;;
44048;SDS011;29717;47.028;15.470;2023-11-22T08:54:32;12.05;;;7.78;;
44048;SDS011;29717;47.028;15.470;2023-11-22T08:56:59;9.40;;;8.40;;
44048;SDS011;29717;47.028;15.470;2023-11-22T08:59:27;13.57;;;9.65;;
44048;SDS011;29717;47.028;15.470;2023-11-22T09:01:54;11.43;;;9.15;;
44048;SDS011;29717;47.028;15.470;2023-11-22T09:04:21;9.13;;;7.97;;
44048;SDS011;29717;47.028;15.470;2023-11-22T09:06:49;10.35;;;8.43;;
44048;SDS011;29717;47.028;15.470;2023-11-22T09:09:16;10.55;;;8.43;;
44048;SDS011;29717;47.028;15.470;2023-11-22T09:11:42;9.32;;;8.32;;
44048;SDS011;29717;47.028;15.470;2023-11-22T09:14:09;9.65;;;8.50;;
44048;SDS011;29717;47.028;15.470;2023-11-22T09:16:37;13.70;;;8.02;;
44048;SDS011;29717;47.028;15.470;2023-11-22T09:19:05;9.60;;;8.30;;
44048;SDS011;29717;47.028;15.470;2023-11-22T09:21:33;10.77;;;8.13;;
44048;SDS011;29717;47.028;15.470;2023-11-22T09:24:00;12.45;;;8.85;;
44048;SDS011;29717;47.028;15.470;2023-11-22T09:26:27;9.07;;;7.85;;
44048;SDS011;29717;47.028;15.470;2023-11-22T09:28:54;7.63;;;6.85;;
44048;SDS011;29717;47.028;15.470;2023-11-22T09:31:21;7.85;;;5.82;;
44048;SDS011;29717;47.028;15.470;2023-11-22T09:33:50;13.45;;;7.00;;
44048;SDS011;29717;47.028;15.470;2023-11-22T09:36:17;8.82;;;6.47;;
44048;SDS011;29717;47.028;15.470;2023-11-22T09:38:44;7.53;;;5.82;;
44048;SDS011;29717;47.028;15.470;2023-11-22T09:41:12;9.30;;;5.80;;
44048;SDS011;29717;47.028;15.470;2023-11-22T09:43:41;6.30;;;5.70;;
44048;SDS011;29717;47.028;15.470;2023-11-22T09:46:09;7.45;;;5.13;;
44048;SDS011;29717;47.028;15.470;2023-11-22T09:48:36;6.40;;;5.00;;
44048;SDS011;29717;47.028;15.470;2023-11-22T09:51:09;7.47;;;4.70;;
44048;SDS011;29717;47.028;15.470;2023-11-22T09:53:44;6.53;;;4.03;;
44048;SDS011;29717;47.028;15.470;2023-11-22T09:56:12;4.28;;;3.88;;
44048;SDS011;29717;47.028;15.470;2023-11-22T09:58:40;6.70;;;4.47;;
44048;SDS011;29717;47.028;15.470;2023-11-22T10:01:09;4.63;;;4.22;;
44048;SDS011;29717;47.028;15.470;2023-11-22T10:03:36;5.30;;;4.80;;
44048;SDS011;29717;47.028;15.470;2023-11-22T10:06:04;5.18;;;4.68;;
44048;SDS011;29717;47.028;15.470;2023-11-22T10:08:32;6.20;;;5.00;;
44048;SDS011;29717;47.028;15.470;2023-11-22T10:10:59;5.78;;;5.28;;
44048;SDS011;29717;47.028;15.470;2023-11-22T10:13:26;6.50;;;5.72;;
44048;SDS011;29717;47.028;15.470;2023-11-22T10:15:53;5.45;;;4.95;;
44048;SDS011;29717;47.028;15.470;2023-11-22T10:18:20;4.50;;;4.10;;
44048;SDS011;29717;47.028;15.470;2023-11-22T10:20:49;4.57;;;3.75;;
44048;SDS011;29717;47.028;15.470;2023-11-22T10:23:17;7.50;;;5.03;;
44048;SDS011;29717;47.028;15.470;2023-11-22T10:25:47;5.45;;;4.60;;
44048;SDS011;29717;47.028;15.470;2023-11-22T10:28:15;7.60;;;4.68;;
44048;SDS011;29717;47.028;15.470;2023-11-22T10:30:42;7.85;;;3.90;;
44048;SDS011;29717;47.028;15.470;2023-11-22T10:33:09;4.35;;;3.53;;
44048;SDS011;29717;47.028;15.470;2023-11-22T10:35:38;5.00;;;4.10;;
44048;SDS011;29717;47.028;15.470;2023-11-22T10:38:07;6.32;;;4.30;;
44048;SDS011;29717;47.028;15.470;2023-11-22T10:40:34;4.20;;;3.72;;
44048;SDS011;29717;47.028;15.470;2023-11-22T10:43:03;4.13;;;3.70;;
44048;SDS011;29717;47.028;15.470;2023-11-22T10:45:30;3.60;;;2.95;;
44048;SDS011;29717;47.028;15.470;2023-11-22T10:47:57;4.63;;;3.45;;
44048;SDS011;29717;47.028;15.470;2023-11-22T10:50:24;5.30;;;3.20;;
44048;SDS011;29717;47.028;15.470;2023-11-22T10:52:51;3.97;;;3.63;;
44048;SDS011;29717;47.028;15.470;2023-11-22T10:55:21;3.65;;;3.20;;
44048;SDS011;29717;47.028;15.470;2023-11-22T10:57:49;4.47;;;3.22;;
44048;SDS011;29717;47.028;15.470;2023-11-22T11:00:19;3.33;;;3.03;;
44048;SDS011;29717;47.028;15.470;2023-11-22T11:02:49;4.97;;;2.78;;
44048;SDS011;29717;47.028;15.470;2023-11-22T11:05:20;5.80;;;2.92;;
44048;SDS011;29717;47.028;15.470;2023-11-22T11:07:54;2.85;;;2.60;;
44048;SDS011;29717;47.028;15.470;2023-11-22T11:10:23;23.67;;;3.83;;
44048;SDS011;29717;47.028;15.470;2023-11-22T11:12:49;3.42;;;2.63;;
44048;SDS011;29717;47.028;15.470;2023-11-22T11:15:16;15.75;;;2.70;;
44048;SDS011;29717;47.028;15.470;2023-11-22T11:17:45;4.47;;;2.92;;
44048;SDS011;29717;47.028;15.470;2023-11-22T11:20:15;3.45;;;2.50;;
44048;SDS011;29717;47.028;15.470;2023-11-22T11:22:42;4.10;;;2.30;;
44048;SDS011;29717;47.028;15.470;2023-11-22T11:25:13;2.60;;;2.40;;
44048;SDS011;29717;47.028;15.470;2023-11-22T11:27:40;4.88;;;2.88;;
44048;SDS011;29717;47.028;15.470;2023-11-22T11:32:53;3.63;;;2.30;;
44048;SDS011;29717;47.028;15.470;2023-11-22T11:35:29;4.53;;;2.70;;
44048;SDS011;29717;47.028;15.470;2023-11-22T11:38:03;6.40;;;2.45;;
44048;SDS011;29717;47.028;15.470;2023-11-22T11:40:31;3.20;;;2.33;;
44048;SDS011;29717;47.028;15.470;2023-11-22T11:42:58;5.55;;;2.30;;
44048;SDS011;29717;47.028;15.470;2023-11-22T11:45:25;3.83;;;2.30;;
44048;SDS011;29717;47.028;15.470;2023-11-22T11:47:55;2.80;;;2.60;;
44048;SDS011;29717;47.028;15.470;2023-11-22T11:50:22;4.30;;;2.30;;
44048;SDS011;29717;47.028;15.470;2023-11-22T11:52:49;4.97;;;2.42;;
44048;SDS011;29717;47.028;15.470;2023-11-22T11:55:15;3.95;;;2.00;;
44048;SDS011;29717;47.028;15.470;2023-11-22T11:57:42;3.65;;;2.40;;
44048;SDS011;29717;47.028;15.470;2023-11-22T12:00:12;3.33;;;2.42;;
44048;SDS011;29717;47.028;15.470;2023-11-22T12:02:39;4.20;;;2.20;;
44048;SDS011;29717;47.028;15.470;2023-11-22T12:05:07;3.05;;;2.33;;
44048;SDS011;29717;47.028;15.470;2023-11-22T12:07:34;4.20;;;2.22;;
44048;SDS011;29717;47.028;15.470;2023-11-22T12:10:02;5.38;;;2.30;;
44048;SDS011;29717;47.028;15.470;2023-11-22T12:12:28;2.35;;;2.15;;
44048;SDS011;29717;47.028;15.470;2023-11-22T12:14:55;3.22;;;2.20;;
44048;SDS011;29717;47.028;15.470;2023-11-22T12:17:22;2.22;;;2.03;;
44048;SDS011;29717;47.028;15.470;2023-11-22T12:19:49;2.60;;;2.40;;
44048;SDS011;29717;47.028;15.470;2023-11-22T12:22:17;3.97;;;2.10;;
44048;SDS011;29717;47.028;15.470;2023-11-22T12:24:44;2.47;;;2.28;;
44048;SDS011;29717;47.028;15.470;2023-11-22T12:27:10;3.15;;;2.00;;
44048;SDS011;29717;47.028;15.470;2023-11-22T12:29:37;2.88;;;2.05;;
44048;SDS011;29717;47.028;15.470;2023-11-22T12:32:04;2.13;;;1.92;;
44048;SDS011;29717;47.028;15.470;2023-11-22T12:34:32;4.40;;;2.17;;
44048;SDS011;29717;47.028;15.470;2023-11-22T12:36:58;3.05;;;2.03;;
44048;SDS011;29717;47.028;15.470;2023-11-22T12:39:26;2.95;;;1.92;;
44048;SDS011;29717;47.028;15.470;2023-11-22T12:41:53;3.80;;;2.00;;
44048;SDS011;29717;47.028;15.470;2023-11-22T12:44:23;2.33;;;1.90;;
44048;SDS011;29717;47.028;15.470;2023-11-22T12:46:50;1.83;;;1.73;;
44048;SDS011;29717;47.028;15.470;2023-11-22T12:49:22;3.38;;;1.90;;
44048;SDS011;29717;47.028;15.470;2023-11-22T12:51:49;2.70;;;1.88;;
44048;SDS011;29717;47.028;15.470;2023-11-22T12:54:16;2.53;;;1.90;;
44048;SDS011;29717;47.028;15.470;2023-11-22T12:56:46;1.70;;;1.60;;
44048;SDS011;29717;47.028;15.470;2023-11-22T12:59:14;2.45;;;1.67;;
44048;SDS011;29717;47.028;15.470;2023-11-22T13:01:41;2.20;;;1.90;;
44048;SDS011;29717;47.028;15.470;2023-11-22T13:04:08;2.35;;;1.70;;
44048;SDS011;29717;47.028;15.470;2023-11-22T13:06:35;2.47;;;1.73;;
44048;SDS011;29717;47.028;15.470;2023-11-22T13:09:04;2.67;;;1.65;;
44048;SDS011;29717;47.028;15.470;2023-11-22T13:11:31;3.53;;;1.60;;
44048;SDS011;29717;47.028;15.470;2023-11-22T13:13:59;2.05;;;1.60;;
44048;SDS011;29717;47.028;15.470;2023-11-22T13:16:26;2.78;;;1.70;;
44048;SDS011;29717;47.028;15.470;2023-11-22T13:18:53;1.92;;;1.65;;
44048;SDS011;29717;47.028;15.470;2023-11-22T13:21:19;3.65;;;1.80;;
44048;SDS011;29717;47.028;15.470;2023-11-22T13:23:46;2.83;;;1.73;;
44048;SDS011;29717;47.028;15.470;2023-11-22T13:26:13;4.80;;;1.60;;
44048;SDS011;29717;47.028;15.470;2023-11-22T13:28:40;2.72;;;1.80;;
44048;SDS011;29717;47.028;15.470;2023-11-22T13:31:09;3.25;;;1.77;;
44048;SDS011;29717;47.028;15.470;2023-11-22T13:33:37;5.38;;;1.90;;
44048;SDS011;29717;47.028;15.470;2023-11-22T13:36:09;1.00;;;0.90;;
44048;SDS011;29717;47.028;15.470;2023-11-22T13:38:35;1.73;;;1.20;;
44048;SDS011;29717;47.028;15.470;2023-11-22T13:41:04;3.17;;;1.27;;
44048;SDS011;29717;47.028;15.470;2023-11-22T13:43:31;3.25;;;1.48;;
44048;SDS011;29717;47.028;15.470;2023-11-22T13:46:00;1.40;;;1.10;;
44048;SDS011;29717;47.028;15.470;2023-11-22T13:48:28;5.88;;;1.20;;
44048;SDS011;29717;47.028;15.470;2023-11-22T13:50:55;1.55;;;1.10;;
44048;SDS011;29717;47.028;15.470;2023-11-22T13:53:25;1.08;;;1.02;;
44048;SDS011;29717;47.028;15.470;2023-11-22T13:55:56;1.48;;;1.27;;
44048;SDS011;29717;47.028;15.470;2023-11-22T13:58:23;2.10;;;1.25;;
44048;SDS011;29717;47.028;15.470;2023-11-22T14:00:50;1.00;;;1.00;;
44048;SDS011;29717;47.028;15.470;2023-11-22T14:03:19;1.35;;;1.08;;
44048;SDS011;29717;47.028;15.470;2023-11-22T14:05:48;2.35;;;1.27;;
44048;SDS011;29717;47.028;15.470;2023-11-22T14:08:15;1.80;;;1.70;;
44048;SDS011;29717;47.028;15.470;2023-11-22T14:10:41;2.65;;;1.55;;
44048;SDS011;29717;47.028;15.470;2023-11-22T14:13:10;1.30;;;1.20;;
44048;SDS011;29717;47.028;15.470;2023-11-22T14:15:37;1.30;;;1.20;;
44048;SDS011;29717;47.028;15.470;2023-11-22T14:18:04;1.40;;;1.30;;
44048;SDS011;29717;47.028;15.470;2023-11-22T14:20:31;3.58;;;1.50;;
44048;SDS011;29717;47.028;15.470;2023-11-22T14:23:01;1.52;;;1.42;;